sensor_id;sensor_type;location;lat;lon;timestamp;P1;durP1;ratioP1;P2;durP2;ratioP2
48777;SDS011;34578;0.000;0.000;2022-11-14T00:00:20;8.13;;;4.43;;
48777;SDS011;34578;0.000;0.000;2022-11-14T00:05:40;8.50;;;4.80;;
48777;SDS011;34578;0.000;0.000;2022-11-14T00:11:00;8.55;;;5.18;;
48777;SDS011;34578;0.000;0.000;2022-11-14T00:16:19;8.77;;;4.70;;
48777;SDS011;34578;0.000;0.000;2022-11-14T00:21:38;9.77;;;5.18;;
48777;SDS011;34578;0.000;0.000;2022-11-14T00:26:57;7.82;;;4.38;;
48777;SDS011;34578;0.000;0.000;2022-11-14T00:32:16;7.93;;;4.15;;
48777;SDS011;34578;0.000;0.000;2022-11-14T00:37:36;6.30;;;3.80;;
48777;SDS011;34578;0.000;0.000;2022-11-14T00:42:55;6.40;;;3.85;;
48777;SDS011;34578;0.000;0.000;2022-11-14T00:48:14;6.40;;;3.90;;
48777;SDS011;34578;0.000;0.000;2022-11-14T00:53:33;7.20;;;3.70;;
48777;SDS011;34578;0.000;0.000;2022-11-14T00:58:52;6.93;;;4.35;;
48777;SDS011;34578;0.000;0.000;2022-11-14T01:04:11;5.22;;;3.42;;
48777;SDS011;34578;0.000;0.000;2022-11-14T01:09:30;5.78;;;3.10;;
48777;SDS011;34578;0.000;0.000;2022-11-14T01:14:49;7.40;;;3.28;;
48777;SDS011;34578;0.000;0.000;2022-11-14T01:20:08;8.20;;;3.45;;
48777;SDS011;34578;0.000;0.000;2022-11-14T01:25:27;5.93;;;3.42;;
48777;SDS011;34578;0.000;0.000;2022-11-14T01:30:45;4.43;;;2.88;;
48777;SDS011;34578;0.000;0.000;2022-11-14T01:36:05;5.53;;;2.88;;
48777;SDS011;34578;0.000;0.000;2022-11-14T01:41:25;6.60;;;3.40;;
48777;SDS011;34578;0.000;0.000;2022-11-14T01:46:45;5.45;;;3.17;;
48777;SDS011;34578;0.000;0.000;2022-11-14T01:52:11;5.38;;;2.70;;
48777;SDS011;34578;0.000;0.000;2022-11-14T01:57:39;5.32;;;2.95;;
48777;SDS011;34578;0.000;0.000;2022-11-14T02:03:02;3.67;;;2.55;;
48777;SDS011;34578;0.000;0.000;2022-11-14T02:08:21;4.88;;;2.65;;
48777;SDS011;34578;0.000;0.000;2022-11-14T02:13:42;4.70;;;2.67;;
48777;SDS011;34578;0.000;0.000;2022-11-14T02:19:01;4.28;;;2.50;;
48777;SDS011;34578;0.000;0.000;2022-11-14T02:24:20;4.47;;;2.78;;
48777;SDS011;34578;0.000;0.000;2022-11-14T02:29:38;4.22;;;1.98;;
48777;SDS011;34578;0.000;0.000;2022-11-14T02:34:57;3.97;;;2.10;;
48777;SDS011;34578;0.000;0.000;2022-11-14T02:40:16;4.30;;;2.50;;
48777;SDS011;34578;0.000;0.000;2022-11-14T02:45:35;5.38;;;2.55;;
48777;SDS011;34578;0.000;0.000;2022-11-14T02:50:54;4.30;;;2.10;;
48777;SDS011;34578;0.000;0.000;2022-11-14T02:56:13;3.67;;;2.40;;
48777;SDS011;34578;0.000;0.000;2022-11-14T03:01:32;4.00;;;2.20;;
48777;SDS011;34578;0.000;0.000;2022-11-14T03:06:51;3.97;;;2.42;;
48777;SDS011;34578;0.000;0.000;2022-11-14T03:12:10;4.03;;;1.92;;
48777;SDS011;34578;0.000;0.000;2022-11-14T03:17:30;2.35;;;1.73;;
48777;SDS011;34578;0.000;0.000;2022-11-14T03:22:50;4.55;;;1.90;;
48777;SDS011;34578;0.000;0.000;2022-11-14T03:28:10;2.88;;;1.90;;
48777;SDS011;34578;0.000;0.000;2022-11-14T03:33:29;3.42;;;1.80;;
48777;SDS011;34578;0.000;0.000;2022-11-14T03:38:48;2.30;;;1.98;;
48777;SDS011;34578;0.000;0.000;2022-11-14T03:44:07;2.95;;;1.95;;
48777;SDS011;34578;0.000;0.000;2022-11-14T03:49:25;6.13;;;2.17;;
48777;SDS011;34578;0.000;0.000;2022-11-14T03:54:44;2.92;;;2.00;;
48777;SDS011;34578;0.000;0.000;2022-11-14T04:00:03;3.05;;;1.73;;
48777;SDS011;34578;0.000;0.000;2022-11-14T04:05:23;2.38;;;1.40;;
48777;SDS011;34578;0.000;0.000;2022-11-14T04:10:45;2.85;;;1.60;;
48777;SDS011;34578;0.000;0.000;2022-11-14T04:16:05;2.38;;;1.63;;
48777;SDS011;34578;0.000;0.000;2022-11-14T04:21:26;2.25;;;1.65;;
48777;SDS011;34578;0.000;0.000;2022-11-14T04:26:44;2.28;;;1.58;;
48777;SDS011;34578;0.000;0.000;2022-11-14T04:32:03;1.27;;;1.08;;
48777;SDS011;34578;0.000;0.000;2022-11-14T04:37:22;2.92;;;1.80;;
48777;SDS011;34578;0.000;0.000;2022-11-14T04:42:41;2.13;;;1.70;;
48777;SDS011;34578;0.000;0.000;2022-11-14T04:48:00;2.92;;;1.63;;
48777;SDS011;34578;0.000;0.000;2022-11-14T04:53:19;2.78;;;1.27;;
48777;SDS011;34578;0.000;0.000;2022-11-14T04:58:38;3.83;;;1.73;;
48777;SDS011;34578;0.000;0.000;2022-11-14T05:03:57;4.90;;;1.83;;
48777;SDS011;34578;0.000;0.000;2022-11-14T05:09:16;5.22;;;1.50;;
48777;SDS011;34578;0.000;0.000;2022-11-14T05:14:35;3.80;;;1.60;;
48777;SDS011;34578;0.000;0.000;2022-11-14T05:19:54;5.30;;;2.53;;
48777;SDS011;34578;0.000;0.000;2022-11-14T05:25:13;6.47;;;1.95;;
48777;SDS011;34578;0.000;0.000;2022-11-14T05:30:31;2.47;;;1.67;;
48777;SDS011;34578;0.000;0.000;2022-11-14T05:35:50;3.10;;;2.05;;
48777;SDS011;34578;0.000;0.000;2022-11-14T05:41:10;3.70;;;1.70;;
48777;SDS011;34578;0.000;0.000;2022-11-14T05:46:33;4.30;;;1.73;;
48777;SDS011;34578;0.000;0.000;2022-11-14T05:51:52;5.18;;;1.48;;
48777;SDS011;34578;0.000;0.000;2022-11-14T05:57:11;9.18;;;1.80;;
48777;SDS011;34578;0.000;0.000;2022-11-14T06:02:30;6.47;;;1.80;;
48777;SDS011;34578;0.000;0.000;2022-11-14T06:07:56;3.47;;;1.73;;
48777;SDS011;34578;0.000;0.000;2022-11-14T06:13:16;5.03;;;2.47;;
48777;SDS011;34578;0.000;0.000;2022-11-14T06:18:35;4.22;;;2.30;;
48777;SDS011;34578;0.000;0.000;2022-11-14T06:23:54;2.92;;;1.77;;
48777;SDS011;34578;0.000;0.000;2022-11-14T06:29:13;3.85;;;2.05;;
48777;SDS011;34578;0.000;0.000;2022-11-14T06:34:32;6.07;;;2.88;;
48777;SDS011;34578;0.000;0.000;2022-11-14T06:39:51;5.43;;;2.60;;
48777;SDS011;34578;0.000;0.000;2022-11-14T06:45:10;5.35;;;2.50;;
48777;SDS011;34578;0.000;0.000;2022-11-14T06:50:29;5.80;;;2.47;;
48777;SDS011;34578;0.000;0.000;2022-11-14T06:55:55;6.68;;;2.60;;
48777;SDS011;34578;0.000;0.000;2022-11-14T07:06:35;8.13;;;2.45;;
48777;SDS011;34578;0.000;0.000;2022-11-14T07:11:54;6.88;;;2.42;;
48777;SDS011;34578;0.000;0.000;2022-11-14T07:17:13;6.22;;;2.50;;
48777;SDS011;34578;0.000;0.000;2022-11-14T07:22:32;4.32;;;2.08;;
48777;SDS011;34578;0.000;0.000;2022-11-14T07:27:51;8.32;;;2.63;;
48777;SDS011;34578;0.000;0.000;2022-11-14T07:33:10;3.70;;;2.05;;
48777;SDS011;34578;0.000;0.000;2022-11-14T07:38:32;4.00;;;2.13;;
48777;SDS011;34578;0.000;0.000;2022-11-14T07:43:52;3.30;;;1.90;;
48777;SDS011;34578;0.000;0.000;2022-11-14T07:49:11;2.58;;;1.98;;
48777;SDS011;34578;0.000;0.000;2022-11-14T07:54:30;5.15;;;2.20;;
48777;SDS011;34578;0.000;0.000;2022-11-14T07:59:49;5.93;;;2.20;;
48777;SDS011;34578;0.000;0.000;2022-11-14T08:05:08;2.78;;;1.83;;
48777;SDS011;34578;0.000;0.000;2022-11-14T08:10:27;2.20;;;1.60;;
48777;SDS011;34578;0.000;0.000;2022-11-14T08:15:46;2.63;;;1.90;;
48777;SDS011;34578;0.000;0.000;2022-11-14T08:21:05;3.17;;;1.80;;
48777;SDS011;34578;0.000;0.000;2022-11-14T08:26:24;2.88;;;1.95;;
48777;SDS011;34578;0.000;0.000;2022-11-14T08:31:44;3.78;;;1.92;;
48777;SDS011;34578;0.000;0.000;2022-11-14T08:37:04;3.85;;;1.98;;
48777;SDS011;34578;0.000;0.000;2022-11-14T08:42:22;2.42;;;1.40;;
48777;SDS011;34578;0.000;0.000;2022-11-14T08:47:41;2.35;;;1.77;;
48777;SDS011;34578;0.000;0.000;2022-11-14T08:53:00;2.70;;;1.70;;
48777;SDS011;34578;0.000;0.000;2022-11-14T08:58:19;3.42;;;2.08;;
48777;SDS011;34578;0.000;0.000;2022-11-14T09:03:38;2.85;;;1.60;;
48777;SDS011;34578;0.000;0.000;2022-11-14T09:08:57;2.80;;;1.50;;
48777;SDS011;34578;0.000;0.000;2022-11-14T09:14:16;3.35;;;1.92;;
48777;SDS011;34578;0.000;0.000;2022-11-14T09:19:35;2.60;;;1.65;;
48777;SDS011;34578;0.000;0.000;2022-11-14T09:24:54;2.90;;;1.60;;
48777;SDS011;34578;0.000;0.000;2022-11-14T09:30:13;2.65;;;1.50;;
48777;SDS011;34578;0.000;0.000;2022-11-14T09:35:32;2.72;;;1.67;;
48777;SDS011;34578;0.000;0.000;2022-11-14T09:41:09;2.83;;;2.08;;
48777;SDS011;34578;0.000;0.000;2022-11-14T09:46:41;2.35;;;1.50;;
48777;SDS011;34578;0.000;0.000;2022-11-14T09:52:25;2.15;;;1.33;;
48777;SDS011;34578;0.000;0.000;2022-11-14T09:57:46;1.73;;;1.42;;
48777;SDS011;34578;0.000;0.000;2022-11-14T10:09:05;2.63;;;1.38;;
48777;SDS011;34578;0.000;0.000;2022-11-14T10:20:29;3.42;;;1.90;;
48777;SDS011;34578;0.000;0.000;2022-11-14T10:26:54;2.73;;;1.60;;
48777;SDS011;34578;0.000;0.000;2022-11-14T10:37:37;3.78;;;2.00;;
48777;SDS011;34578;0.000;0.000;2022-11-14T10:43:10;1.98;;;1.52;;
48777;SDS011;34578;0.000;0.000;2022-11-14T10:48:42;3.85;;;2.20;;
48777;SDS011;34578;0.000;0.000;2022-11-14T10:54:05;5.25;;;2.60;;
48777;SDS011;34578;0.000;0.000;2022-11-14T10:59:28;2.65;;;2.25;;
48777;SDS011;34578;0.000;0.000;2022-11-14T11:04:47;2.15;;;1.60;;
48777;SDS011;34578;0.000;0.000;2022-11-14T11:10:06;2.20;;;1.45;;
48777;SDS011;34578;0.000;0.000;2022-11-14T11:15:57;2.50;;;1.73;;
48777;SDS011;34578;0.000;0.000;2022-11-14T11:21:18;1.92;;;1.55;;
48777;SDS011;34578;0.000;0.000;2022-11-14T11:26:39;2.47;;;1.80;;
48777;SDS011;34578;0.000;0.000;2022-11-14T11:31:58;4.30;;;1.52;;
48777;SDS011;34578;0.000;0.000;2022-11-14T11:37:18;4.93;;;1.67;;
48777;SDS011;34578;0.000;0.000;2022-11-14T11:48:07;2.53;;;1.45;;
48777;SDS011;34578;0.000;0.000;2022-11-14T11:53:35;4.20;;;1.85;;
48777;SDS011;34578;0.000;0.000;2022-11-14T11:59:13;3.10;;;1.55;;
48777;SDS011;34578;0.000;0.000;2022-11-14T12:04:44;2.83;;;1.30;;
48777;SDS011;34578;0.000;0.000;2022-11-14T12:10:11;2.30;;;1.33;;
48777;SDS011;34578;0.000;0.000;2022-11-14T12:21:04;2.33;;;1.48;;
48777;SDS011;34578;0.000;0.000;2022-11-14T12:26:42;4.70;;;2.08;;
48777;SDS011;34578;0.000;0.000;2022-11-14T12:32:54;3.65;;;2.35;;
48777;SDS011;34578;0.000;0.000;2022-11-14T12:38:15;2.35;;;1.50;;
48777;SDS011;34578;0.000;0.000;2022-11-14T12:43:39;3.92;;;1.80;;
48777;SDS011;34578;0.000;0.000;2022-11-14T12:49:00;8.48;;;2.20;;
48777;SDS011;34578;0.000;0.000;2022-11-14T13:00:07;8.82;;;3.58;;
48777;SDS011;34578;0.000;0.000;2022-11-14T13:05:44;12.80;;;2.22;;
48777;SDS011;34578;0.000;0.000;2022-11-14T13:22:50;5.18;;;2.90;;
48777;SDS011;34578;0.000;0.000;2022-11-14T13:33:56;5.13;;;1.70;;
48777;SDS011;34578;0.000;0.000;2022-11-14T13:50:38;5.72;;;1.88;;
48777;SDS011;34578;0.000;0.000;2022-11-14T14:01:27;4.78;;;2.20;;
48777;SDS011;34578;0.000;0.000;2022-11-14T14:12:49;2.78;;;1.80;;
48777;SDS011;34578;0.000;0.000;2022-11-14T14:18:21;2.42;;;1.70;;
48777;SDS011;34578;0.000;0.000;2022-11-14T14:29:24;2.85;;;1.58;;
48777;SDS011;34578;0.000;0.000;2022-11-14T14:34:55;3.88;;;1.75;;
48777;SDS011;34578;0.000;0.000;2022-11-14T14:40:30;3.75;;;1.63;;
48777;SDS011;34578;0.000;0.000;2022-11-14T14:45:51;1.75;;;1.30;;
48777;SDS011;34578;0.000;0.000;2022-11-14T14:51:12;2.75;;;2.30;;
48777;SDS011;34578;0.000;0.000;2022-11-14T14:56:31;3.47;;;1.65;;
48777;SDS011;34578;0.000;0.000;2022-11-14T15:01:50;3.05;;;1.88;;
48777;SDS011;34578;0.000;0.000;2022-11-14T15:07:21;2.85;;;1.58;;
48777;SDS011;34578;0.000;0.000;2022-11-14T15:12:42;3.50;;;1.50;;
48777;SDS011;34578;0.000;0.000;2022-11-14T15:18:04;2.80;;;1.70;;
48777;SDS011;34578;0.000;0.000;2022-11-14T15:23:25;1.75;;;1.38;;
48777;SDS011;34578;0.000;0.000;2022-11-14T15:28:44;1.98;;;1.52;;
48777;SDS011;34578;0.000;0.000;2022-11-14T15:34:20;3.38;;;1.58;;
48777;SDS011;34578;0.000;0.000;2022-11-14T15:39:50;2.40;;;1.13;;
48777;SDS011;34578;0.000;0.000;2022-11-14T15:45:22;3.70;;;2.00;;
48777;SDS011;34578;0.000;0.000;2022-11-14T15:50:42;3.28;;;1.45;;
48777;SDS011;34578;0.000;0.000;2022-11-14T15:56:01;1.65;;;1.10;;
48777;SDS011;34578;0.000;0.000;2022-11-14T16:01:21;1.83;;;1.38;;
48777;SDS011;34578;0.000;0.000;2022-11-14T16:06:43;3.35;;;1.60;;
48777;SDS011;34578;0.000;0.000;2022-11-14T16:12:02;1.60;;;1.20;;
48777;SDS011;34578;0.000;0.000;2022-11-14T16:17:21;1.67;;;1.20;;
48777;SDS011;34578;0.000;0.000;2022-11-14T16:22:41;4.50;;;2.00;;
48777;SDS011;34578;0.000;0.000;2022-11-14T16:28:03;1.40;;;1.20;;
48777;SDS011;34578;0.000;0.000;2022-11-14T16:33:22;2.03;;;1.20;;
48777;SDS011;34578;0.000;0.000;2022-11-14T16:38:41;2.30;;;1.45;;
48777;SDS011;34578;0.000;0.000;2022-11-14T16:44:00;1.67;;;1.30;;
48777;SDS011;34578;0.000;0.000;2022-11-14T16:49:19;1.20;;;1.00;;
48777;SDS011;34578;0.000;0.000;2022-11-14T16:54:38;1.30;;;1.17;;
48777;SDS011;34578;0.000;0.000;2022-11-14T16:59:57;2.85;;;1.50;;
48777;SDS011;34578;0.000;0.000;2022-11-14T17:05:16;1.70;;;1.20;;
48777;SDS011;34578;0.000;0.000;2022-11-14T17:10:39;1.92;;;1.48;;
48777;SDS011;34578;0.000;0.000;2022-11-14T17:16:02;1.20;;;1.10;;
48777;SDS011;34578;0.000;0.000;2022-11-14T17:21:22;1.80;;;1.40;;
48777;SDS011;34578;0.000;0.000;2022-11-14T17:26:41;2.03;;;1.30;;
48777;SDS011;34578;0.000;0.000;2022-11-14T17:32:00;2.00;;;1.40;;
48777;SDS011;34578;0.000;0.000;2022-11-14T17:37:22;8.98;;;1.60;;
48777;SDS011;34578;0.000;0.000;2022-11-14T17:42:40;4.32;;;1.50;;
48777;SDS011;34578;0.000;0.000;2022-11-14T17:47:59;2.10;;;1.42;;
48777;SDS011;34578;0.000;0.000;2022-11-14T17:53:18;2.20;;;1.45;;
48777;SDS011;34578;0.000;0.000;2022-11-14T17:58:37;1.45;;;1.00;;
48777;SDS011;34578;0.000;0.000;2022-11-14T18:03:56;1.70;;;1.40;;
48777;SDS011;34578;0.000;0.000;2022-11-14T18:09:15;2.80;;;1.20;;
48777;SDS011;34578;0.000;0.000;2022-11-14T18:14:34;3.20;;;1.38;;
48777;SDS011;34578;0.000;0.000;2022-11-14T18:19:53;4.35;;;1.50;;
48777;SDS011;34578;0.000;0.000;2022-11-14T18:25:14;3.83;;;1.48;;
48777;SDS011;34578;0.000;0.000;2022-11-14T18:30:33;3.67;;;1.70;;
48777;SDS011;34578;0.000;0.000;2022-11-14T18:35:56;2.67;;;1.75;;
48777;SDS011;34578;0.000;0.000;2022-11-14T18:41:17;4.22;;;1.75;;
48777;SDS011;34578;0.000;0.000;2022-11-14T18:46:38;1.95;;;1.50;;
48777;SDS011;34578;0.000;0.000;2022-11-14T18:51:57;2.42;;;2.13;;
48777;SDS011;34578;0.000;0.000;2022-11-14T18:57:16;5.15;;;2.13;;
48777;SDS011;34578;0.000;0.000;2022-11-14T19:02:35;5.72;;;2.65;;
48777;SDS011;34578;0.000;0.000;2022-11-14T19:07:54;2.90;;;2.40;;
48777;SDS011;34578;0.000;0.000;2022-11-14T19:13:13;4.55;;;2.78;;
48777;SDS011;34578;0.000;0.000;2022-11-14T19:18:32;3.67;;;3.00;;
48777;SDS011;34578;0.000;0.000;2022-11-14T19:23:51;4.93;;;3.08;;
48777;SDS011;34578;0.000;0.000;2022-11-14T19:29:11;5.65;;;2.75;;
48777;SDS011;34578;0.000;0.000;2022-11-14T19:34:31;3.67;;;2.88;;
48777;SDS011;34578;0.000;0.000;2022-11-14T19:39:50;4.13;;;2.70;;
48777;SDS011;34578;0.000;0.000;2022-11-14T19:45:12;6.43;;;3.03;;
48777;SDS011;34578;0.000;0.000;2022-11-14T19:50:31;4.43;;;3.00;;
48777;SDS011;34578;0.000;0.000;2022-11-14T19:55:51;7.82;;;2.90;;
48777;SDS011;34578;0.000;0.000;2022-11-14T20:01:18;4.32;;;3.13;;
48777;SDS011;34578;0.000;0.000;2022-11-14T20:06:39;4.03;;;3.63;;
48777;SDS011;34578;0.000;0.000;2022-11-14T20:12:00;7.43;;;3.40;;
48777;SDS011;34578;0.000;0.000;2022-11-14T20:17:19;5.93;;;3.22;;
48777;SDS011;34578;0.000;0.000;2022-11-14T20:22:38;7.50;;;3.38;;
48777;SDS011;34578;0.000;0.000;2022-11-14T20:27:57;7.45;;;3.78;;
48777;SDS011;34578;0.000;0.000;2022-11-14T20:33:16;6.13;;;3.88;;
48777;SDS011;34578;0.000;0.000;2022-11-14T20:38:35;4.30;;;3.38;;
48777;SDS011;34578;0.000;0.000;2022-11-14T20:43:54;6.32;;;3.88;;
48777;SDS011;34578;0.000;0.000;2022-11-14T20:49:13;6.03;;;4.75;;
48777;SDS011;34578;0.000;0.000;2022-11-14T20:54:32;7.82;;;4.35;;
48777;SDS011;34578;0.000;0.000;2022-11-14T20:59:51;8.18;;;4.40;;
48777;SDS011;34578;0.000;0.000;2022-11-14T21:05:10;7.55;;;3.90;;
48777;SDS011;34578;0.000;0.000;2022-11-14T21:10:29;5.95;;;4.13;;
48777;SDS011;34578;0.000;0.000;2022-11-14T21:16:04;7.25;;;5.15;;
48777;SDS011;34578;0.000;0.000;2022-11-14T21:21:26;6.10;;;5.03;;
48777;SDS011;34578;0.000;0.000;2022-11-14T21:26:46;5.72;;;4.90;;
48777;SDS011;34578;0.000;0.000;2022-11-14T21:32:04;6.07;;;4.82;;
48777;SDS011;34578;0.000;0.000;2022-11-14T21:37:23;6.00;;;5.10;;
48777;SDS011;34578;0.000;0.000;2022-11-14T21:42:42;6.82;;;4.97;;
48777;SDS011;34578;0.000;0.000;2022-11-14T21:48:01;6.63;;;4.47;;
48777;SDS011;34578;0.000;0.000;2022-11-14T21:53:20;8.80;;;5.00;;
48777;SDS011;34578;0.000;0.000;2022-11-14T21:58:39;5.97;;;5.40;;
48777;SDS011;34578;0.000;0.000;2022-11-14T22:03:59;5.53;;;4.72;;
48777;SDS011;34578;0.000;0.000;2022-11-14T22:09:30;10.40;;;4.85;;
48777;SDS011;34578;0.000;0.000;2022-11-14T22:14:50;5.28;;;4.35;;
48777;SDS011;34578;0.000;0.000;2022-11-14T22:20:09;6.85;;;4.65;;
48777;SDS011;34578;0.000;0.000;2022-11-14T22:25:28;7.70;;;4.18;;
48777;SDS011;34578;0.000;0.000;2022-11-14T22:30:48;8.23;;;4.85;;
48777;SDS011;34578;0.000;0.000;2022-11-14T22:36:21;6.80;;;4.90;;
48777;SDS011;34578;0.000;0.000;2022-11-14T22:41:41;7.57;;;4.22;;
48777;SDS011;34578;0.000;0.000;2022-11-14T22:47:00;6.63;;;4.55;;
48777;SDS011;34578;0.000;0.000;2022-11-14T22:52:20;5.68;;;4.53;;
48777;SDS011;34578;0.000;0.000;2022-11-14T22:57:38;7.72;;;4.10;;
48777;SDS011;34578;0.000;0.000;2022-11-14T23:02:57;7.82;;;3.90;;
48777;SDS011;34578;0.000;0.000;2022-11-14T23:08:17;6.72;;;3.90;;
48777;SDS011;34578;0.000;0.000;2022-11-14T23:13:38;8.32;;;4.47;;
48777;SDS011;34578;0.000;0.000;2022-11-14T23:18:59;9.07;;;4.90;;
48777;SDS011;34578;0.000;0.000;2022-11-14T23:24:20;5.40;;;3.88;;
48777;SDS011;34578;0.000;0.000;2022-11-14T23:29:39;6.70;;;3.83;;
48777;SDS011;34578;0.000;0.000;2022-11-14T23:34:58;6.70;;;5.22;;
48777;SDS011;34578;0.000;0.000;2022-11-14T23:40:17;7.13;;;3.63;;
48777;SDS011;34578;0.000;0.000;2022-11-14T23:45:36;6.97;;;3.95;;
48777;SDS011;34578;0.000;0.000;2022-11-14T23:50:55;5.22;;;4.18;;
48777;SDS011;34578;0.000;0.000;2022-11-14T23:56:15;3.97;;;3.65;;
